Who's Online

We have 1 guest online

Aviation WX

[source: ADDS]
METAR
KIAD 290337Z 07006KT 10SM OVC010 08/07 A3002 RMK AO2 T00830067 =
TAF
KIAD 290231Z 2903/3006 07005KT 6SM -DZ BR OVC008 FM290900 06005KT 2SM -RADZ BR OVC005 FM291600 08005KT P6SM BKN008 OVC015 FM292100 09005KT P6SM SCT008 OVC015 FM300200 06004KT 5SM -DZ BR OVC008 =
SR / SS: 23:58 / 13:40 UTC (Washington-Dulles 2016-04-28)

JoomlaWatch Agent

Home Products and Services

This section describes Multilink Systems products and services

 

 

Under construction Please Standby